createdAt,value
2024-01-20T00:01:12.037Z,-1.48
2024-01-20T00:06:16.446Z,-1.52
2024-01-20T00:11:19.870Z,-1.54
2024-01-20T00:16:23.390Z,-1.62
2024-01-20T00:21:28.179Z,-1.37
2024-01-20T00:26:31.186Z,-1.51
2024-01-20T00:31:35.474Z,-1.66
2024-01-20T00:36:39.860Z,-1.67
2024-01-20T00:41:42.946Z,-1.55
2024-01-20T00:46:46.647Z,-1.25
2024-01-20T00:51:50.920Z,-1.77
2024-01-20T00:56:54.009Z,-1.27
2024-01-20T01:01:57.003Z,-1.69
2024-01-20T01:07:01.310Z,-1.40
2024-01-20T01:12:04.672Z,-1.41
2024-01-20T01:17:07.845Z,-1.27
2024-01-20T01:22:12.182Z,-1.17
2024-01-20T01:27:15.120Z,-1.78
2024-01-20T01:32:18.260Z,-1.37
2024-01-20T01:37:22.715Z,-1.18
2024-01-20T01:42:25.649Z,-1.25
2024-01-20T01:47:28.877Z,-0.99
2024-01-20T01:52:34.424Z,-1.05
2024-01-20T01:57:37.601Z,-1.52
2024-01-20T02:02:40.522Z,-1.53
2024-01-20T02:07:49.457Z,-0.91
2024-01-20T02:12:52.878Z,-1.01
2024-01-20T02:17:57.225Z,-1.02
2024-01-20T02:23:01.585Z,-1.27
2024-01-20T02:28:05.170Z,-1.13
2024-01-20T02:33:08.192Z,-1.51
2024-01-20T02:38:12.557Z,-1.15
2024-01-20T02:43:16.633Z,-1.67
2024-01-20T02:48:19.907Z,-1.43
2024-01-20T02:53:25.450Z,-1.52
2024-01-20T02:58:28.570Z,-1.22
2024-01-20T03:03:31.651Z,-1.22
2024-01-20T03:08:36.012Z,-1.76
2024-01-20T03:13:38.970Z,-1.55
2024-01-20T03:18:42.248Z,-1.48
2024-01-20T03:23:46.624Z,-1.70
2024-01-20T03:28:49.742Z,-1.50
2024-01-20T03:33:54.020Z,-1.85
2024-01-20T03:38:58.497Z,-1.44
2024-01-20T03:44:01.513Z,-1.92
2024-01-20T03:49:04.911Z,-2.01
2024-01-20T03:54:10.308Z,-2.00
2024-01-20T03:59:13.457Z,-2.00
2024-01-20T04:04:16.403Z,-2.08
2024-01-20T04:09:21.660Z,-2.15
2024-01-20T04:14:24.629Z,-2.46
2024-01-20T04:19:27.639Z,-2.23
2024-01-20T04:24:32.081Z,-1.94
2024-01-20T04:29:34.997Z,-2.48
2024-01-20T04:34:38.307Z,-2.31
2024-01-20T04:39:42.874Z,-2.49
2024-01-20T04:44:46.189Z,-2.46
2024-01-20T04:49:49.839Z,-2.60
2024-01-20T04:54:54.619Z,-2.56
2024-01-20T04:59:57.638Z,-2.52
2024-01-20T05:05:00.553Z,-2.55
2024-01-20T05:10:05.155Z,-2.47
2024-01-20T05:15:12.847Z,-2.68
2024-01-20T05:20:16.576Z,-2.61
2024-01-20T05:25:20.938Z,-2.49
2024-01-20T05:30:24.916Z,-2.52
2024-01-20T05:35:27.885Z,-2.18
2024-01-20T05:40:32.192Z,-2.34
2024-01-20T05:45:35.244Z,-2.58
2024-01-20T05:50:38.309Z,-2.24
2024-01-20T05:55:42.671Z,-2.56
2024-01-20T06:00:45.903Z,-2.26
2024-01-20T06:05:49.386Z,-2.00
2024-01-20T06:10:54.041Z,-2.21
2024-01-20T06:15:57.331Z,-2.57
2024-01-20T06:21:01.120Z,-2.61
2024-01-20T06:26:05.719Z,-2.33
2024-01-20T06:31:08.629Z,-2.45
2024-01-20T06:36:11.596Z,-2.35
2024-01-20T06:41:15.865Z,-2.26
2024-01-20T06:46:18.835Z,-2.35
2024-01-20T06:51:26.919Z,-2.61
2024-01-20T06:56:31.288Z,-2.46
2024-01-20T07:01:34.335Z,-2.57
2024-01-20T07:06:37.285Z,-2.27
2024-01-20T07:11:41.728Z,-2.32
2024-01-20T07:16:44.614Z,-2.59
2024-01-20T07:21:47.532Z,-2.46
2024-01-20T07:26:51.855Z,-2.13
2024-01-20T07:31:54.767Z,-2.25
2024-01-20T07:36:57.703Z,-2.30
2024-01-20T07:42:02.021Z,-2.35
2024-01-20T07:47:05.388Z,-2.35
2024-01-20T07:52:08.969Z,-2.46
2024-01-20T07:57:13.317Z,-2.34
2024-01-20T08:02:16.455Z,-2.12
2024-01-20T08:07:19.406Z,-1.94
2024-01-20T08:12:23.848Z,-2.20
2024-01-20T08:17:27.023Z,-2.01
2024-01-20T08:22:30.035Z,-1.92
2024-01-20T08:27:34.402Z,-2.10
2024-01-20T08:32:38.664Z,-1.79
2024-01-20T08:37:41.748Z,-2.02
2024-01-20T08:42:46.103Z,-2.13
2024-01-20T08:47:49.180Z,-1.81
2024-01-20T08:52:52.264Z,-1.32
2024-01-20T08:57:58.039Z,-1.66
2024-01-20T09:03:01.085Z,-1.60
2024-01-20T09:08:06.178Z,-1.62
2024-01-20T09:13:11.075Z,-1.36
2024-01-20T09:18:17.387Z,-1.78
2024-01-20T09:23:20.613Z,-2.04
2024-01-20T09:28:26.303Z,-1.93
2024-01-20T09:33:29.917Z,-1.75
2024-01-20T09:38:32.994Z,-1.78
2024-01-20T09:43:39.402Z,-1.47
2024-01-20T09:48:44.555Z,-1.28
2024-01-20T09:53:49.372Z,-0.99
2024-01-20T09:58:54.705Z,-1.10
2024-01-20T10:04:02.749Z,-0.23
2024-01-20T10:09:05.871Z,-0.13
2024-01-20T10:14:10.216Z,0.47
2024-01-20T10:19:13.289Z,0.22
2024-01-20T10:24:22.305Z,0.38
2024-01-20T10:29:26.975Z,1.01
2024-01-20T10:34:30.754Z,-0.22
2024-01-20T10:39:38.365Z,0.03
2024-01-20T10:44:44.387Z,0.43
2024-01-20T10:49:51.108Z,0.51
2024-01-20T10:54:54.202Z,0.75
2024-01-20T11:00:00.863Z,0.47
2024-01-20T11:05:04.565Z,0.98
2024-01-20T11:10:09.946Z,1.38
2024-01-20T11:15:19.280Z,2.09
2024-01-20T11:20:22.366Z,2.01
2024-01-20T11:25:25.826Z,3.52
2024-01-20T11:30:32.002Z,3.49
2024-01-20T11:35:38.520Z,4.29
2024-01-20T11:40:41.628Z,2.83
2024-01-20T11:45:46.181Z,2.83
2024-01-20T11:50:49.450Z,4.15
2024-01-20T11:55:57.068Z,4.36
2024-01-20T12:01:02.711Z,4.41
2024-01-20T12:06:09.730Z,2.59
2024-01-20T12:11:21.055Z,2.49
2024-01-20T12:16:26.250Z,2.37
2024-01-20T12:21:30.073Z,2.37
2024-01-20T12:26:33.932Z,2.46
2024-01-20T12:31:38.471Z,2.15
2024-01-20T12:36:41.387Z,2.49
2024-01-20T12:41:44.438Z,2.49
2024-01-20T12:46:49.140Z,1.46
2024-01-20T12:51:52.241Z,2.56
2024-01-20T12:56:55.294Z,1.60
2024-01-20T13:01:59.542Z,1.54
2024-01-20T13:07:02.445Z,1.53
2024-01-20T13:12:06.269Z,1.56
2024-01-20T13:17:10.846Z,2.03
2024-01-20T13:22:13.802Z,2.39
2024-01-20T13:27:16.791Z,2.98
2024-01-20T13:32:21.325Z,3.17
2024-01-20T13:37:25.329Z,3.47
2024-01-20T13:42:28.474Z,3.90
2024-01-20T13:47:32.910Z,3.78
2024-01-20T13:52:35.935Z,3.91
2024-01-20T13:57:38.959Z,4.23
2024-01-20T14:02:44.708Z,3.37
2024-01-20T14:07:47.691Z,3.78
2024-01-20T14:12:50.621Z,3.76
2024-01-20T14:17:54.950Z,3.25
2024-01-20T14:22:58.008Z,2.92
2024-01-20T14:28:02.124Z,3.18
2024-01-20T14:33:06.987Z,3.69
2024-01-20T14:38:10.064Z,3.50
2024-01-20T14:43:13.022Z,3.97
2024-01-20T14:48:17.371Z,3.71
2024-01-20T14:53:20.991Z,3.59
2024-01-20T14:58:23.916Z,3.62
2024-01-20T15:03:28.257Z,2.88
2024-01-20T15:08:31.211Z,2.74
2024-01-20T15:13:34.235Z,3.12
2024-01-20T15:18:38.673Z,3.14
2024-01-20T15:23:41.793Z,2.79
2024-01-20T15:28:45.401Z,2.40
2024-01-20T15:33:49.841Z,2.22
2024-01-20T15:38:52.849Z,1.96
2024-01-20T15:43:55.873Z,1.67
2024-01-20T15:49:00.352Z,1.79
2024-01-20T15:54:03.348Z,1.37
2024-01-20T15:59:06.273Z,1.60
2024-01-20T16:04:10.776Z,1.51
2024-01-20T16:09:15.628Z,1.47
2024-01-20T16:14:23.480Z,1.51
2024-01-20T16:19:28.843Z,1.30
2024-01-20T16:24:31.898Z,0.92
2024-01-20T16:29:35.151Z,1.13
2024-01-20T16:34:39.783Z,0.77
2024-01-20T16:39:42.973Z,0.88
2024-01-20T16:44:46.181Z,0.81
2024-01-20T16:49:50.700Z,0.55
2024-01-20T16:54:53.765Z,0.78
2024-01-20T16:59:56.652Z,0.70
2024-01-20T17:05:01.083Z,0.56
2024-01-20T17:10:04.477Z,0.77
2024-01-20T17:15:09.619Z,0.74
2024-01-20T17:20:14.542Z,0.80
2024-01-20T17:25:17.614Z,0.80
2024-01-20T17:30:20.677Z,0.89
2024-01-20T17:35:25.334Z,0.79
2024-01-20T17:40:28.433Z,0.63
2024-01-20T17:45:31.473Z,0.49
2024-01-20T17:50:35.849Z,0.38
2024-01-20T17:55:38.926Z,0.30
2024-01-20T18:00:42.758Z,0.30
2024-01-20T18:05:47.239Z,0.33
2024-01-20T18:10:51.748Z,0.19
2024-01-20T18:15:54.899Z,0.12
2024-01-20T18:20:59.375Z,-0.02
2024-01-20T18:26:02.320Z,-0.23
2024-01-20T18:31:08.209Z,-0.46
2024-01-20T18:36:13.151Z,-0.54
2024-01-20T18:41:18.242Z,-0.47
2024-01-20T18:46:22.058Z,-0.43
2024-01-20T18:51:26.468Z,-0.36
2024-01-20T18:56:29.559Z,-0.38
2024-01-20T19:01:33.770Z,-0.47
2024-01-20T19:06:38.326Z,-0.48
2024-01-20T19:11:41.492Z,-0.50
2024-01-20T19:16:44.502Z,-0.51
2024-01-20T19:21:49.592Z,-0.51
2024-01-20T19:26:52.609Z,-0.71
2024-01-20T19:31:55.617Z,-0.72
2024-01-20T19:36:59.919Z,-0.80
2024-01-20T19:42:03.006Z,-0.91
2024-01-20T19:47:07.527Z,-1.00
2024-01-20T19:52:11.887Z,-1.12
2024-01-20T19:57:16.294Z,-1.17
2024-01-20T20:02:19.335Z,-1.27
2024-01-20T20:07:23.734Z,-1.35
2024-01-20T20:12:26.653Z,-1.45
2024-01-20T20:17:29.636Z,-1.62
2024-01-20T20:22:33.994Z,-1.68
2024-01-20T20:27:36.971Z,-1.72
2024-01-20T20:32:40.864Z,-1.74
2024-01-20T20:37:45.496Z,-1.78
2024-01-20T20:42:48.609Z,-1.79
2024-01-20T20:47:51.682Z,-1.76
2024-01-20T20:52:56.025Z,-1.70
2024-01-20T20:57:58.995Z,-1.85
2024-01-20T21:03:02.147Z,-1.90
2024-01-20T21:08:07.057Z,-1.79
2024-01-20T21:13:11.430Z,-1.88
2024-01-20T21:18:15.285Z,-1.89
2024-01-20T21:23:19.841Z,-1.90
2024-01-20T21:28:23.476Z,-1.92
2024-01-20T21:33:26.703Z,-1.96
2024-01-20T21:38:31.073Z,-1.91
2024-01-20T21:43:34.059Z,-2.03
2024-01-20T21:48:37.778Z,-2.14
2024-01-20T21:53:42.546Z,-2.33
2024-01-20T21:58:45.554Z,-2.48
2024-01-20T22:03:49.140Z,-2.12
2024-01-20T22:08:53.532Z,-2.25
2024-01-20T22:13:56.604Z,-2.05
2024-01-20T22:18:59.724Z,-2.29
2024-01-20T22:24:04.284Z,-2.14
2024-01-20T22:29:18.775Z,-2.19
2024-01-20T22:34:31.814Z,-2.16
2024-01-20T22:39:38.151Z,-2.29
2024-01-20T22:44:41.117Z,-2.32
2024-01-20T22:49:44.507Z,-2.38
2024-01-20T22:54:49.653Z,-2.37
2024-01-20T22:59:52.797Z,-2.49
2024-01-20T23:04:56.347Z,-2.64
2024-01-20T23:10:00.815Z,-2.60
2024-01-20T23:15:04.090Z,-2.83
2024-01-20T23:20:09.140Z,-2.85
2024-01-20T23:25:13.530Z,-2.87
2024-01-20T23:30:17.163Z,-3.09
2024-01-20T23:35:20.174Z,-3.04
2024-01-20T23:40:24.512Z,-2.89
2024-01-20T23:45:28.448Z,-3.03
2024-01-20T23:50:31.581Z,-3.03
2024-01-20T23:55:35.854Z,-3.04
